Time;durP1;ratioP1;P1;durP2;ratioP2;P2;SDS_P1;SDS_P2;PMS_P1;PMS_P2;Temp;Humidity;BMP_temperature;BMP_pressure;BME280_temperature;BME280_humidity;BME280_pressure;Samples;Min_cycle;Max_cycle;Signal;HPM_P1;HPM_P2
2023/12/18 00:01:05;;;;;;;;;;;;;;;3.82;64.22;99858.94;5005524;28;19930;-64
2023/12/18 00:03:55;;;;;;;;;;;;;;;3.81;64.08;99860.81;5005628;28;19929;-65
2023/12/18 00:06:43;;;;;;;;;;;;;;;3.81;64.64;99860.00;5004368;28;20308;-64
2023/12/18 00:09:31;;;;;;;;;;;;;;;3.83;64.25;99850.66;5006994;28;19929;-64
2023/12/18 00:12:18;;;;;;;;;;;;;;;3.78;64.39;99849.66;5004979;28;20408;-63
2023/12/18 00:15:08;;;;;;;;;;;;;;;3.77;64.62;99848.03;5005590;28;19941;-63
2023/12/18 00:17:56;;;;;;;;;;;;;;;3.78;64.41;99850.53;5001134;28;19932;-65
2023/12/18 00:20:45;;;;;;;;;;;;;;;3.77;64.62;99848.03;5007890;28;19933;-64
2023/12/18 00:23:33;;;;;;;;;;;;;;;3.74;64.11;99843.94;5010648;28;20321;-63
2023/12/18 00:26:21;;;;;;;;;;;;;;;3.62;64.90;99837.59;5003228;28;19937;-64
2023/12/18 00:29:09;;;;;;;;;;;;;;;3.63;65.16;99833.88;5007469;28;19952;-62
2023/12/18 00:31:57;;;;;;;;;;;;;;;3.62;65.11;99840.28;5008673;28;19964;-64
2023/12/18 00:34:46;;;;;;;;;;;;;;;3.66;64.98;99844.19;5007038;28;19933;-64
2023/12/18 00:37:36;;;;;;;;;;;;;;;3.66;65.10;99836.94;5009723;28;20392;-64
2023/12/18 00:40:24;;;;;;;;;;;;;;;3.67;65.18;99827.88;5003923;28;19929;-64
2023/12/18 00:43:14;;;;;;;;;;;;;;;3.68;64.71;99834.88;5000580;28;20379;-65
2023/12/18 00:46:03;;;;;;;;;;;;;;;3.70;64.50;99825.78;5007518;28;19926;-63
2023/12/18 00:48:51;;;;;;;;;;;;;;;3.61;65.31;99827.88;5008082;28;20429;-63
2023/12/18 00:51:40;;;;;;;;;;;;;;;3.60;64.91;99826.25;5003905;28;19932;-62
2023/12/18 00:54:29;;;;;;;;;;;;;;;3.58;64.88;99831.84;5005256;28;20518;-63
2023/12/18 00:57:17;;;;;;;;;;;;;;;3.59;65.07;99833.50;5000813;28;20494;-63
2023/12/18 01:00:06;;;;;;;;;;;;;;;3.59;65.03;99832.69;4997061;28;19940;-64
2023/12/18 01:02:54;;;;;;;;;;;;;;;3.39;65.39;99835.50;5005709;28;19929;-64
2023/12/18 01:05:43;;;;;;;;;;;;;;;3.37;65.45;99832.22;5003926;28;19925;-64
2023/12/18 01:08:31;;;;;;;;;;;;;;;3.32;65.72;99826.69;5004745;28;20315;-62
2023/12/18 01:11:20;;;;;;;;;;;;;;;3.36;65.32;99828.72;5007698;28;19930;-63
2023/12/18 01:14:08;;;;;;;;;;;;;;;3.37;65.23;99827.66;5002705;28;21721;-64
2023/12/18 01:16:56;;;;;;;;;;;;;;;3.39;64.94;99827.44;5004076;28;19926;-63
2023/12/18 01:19:44;;;;;;;;;;;;;;;3.27;66.06;99829.19;5005526;28;19930;-65
2023/12/18 01:22:33;;;;;;;;;;;;;;;3.34;65.47;99824.59;5003494;28;20027;-64
2023/12/18 01:25:23;;;;;;;;;;;;;;;3.34;65.10;99825.41;5005981;28;19929;-64
2023/12/18 01:28:14;;;;;;;;;;;;;;;3.37;65.17;99824.16;5002901;28;19948;-64
2023/12/18 01:31:02;;;;;;;;;;;;;;;3.31;65.05;99822.34;5003313;28;20012;-64
2023/12/18 01:33:50;;;;;;;;;;;;;;;3.31;65.03;99817.78;5002461;28;19944;-64
2023/12/18 01:36:38;;;;;;;;;;;;;;;3.29;65.25;99808.28;5001502;28;19929;-65
2023/12/18 01:39:26;;;;;;;;;;;;;;;3.28;64.90;99812.03;5000660;28;20410;-63
2023/12/18 01:42:14;;;;;;;;;;;;;;;3.29;65.27;99810.97;5005649;28;20072;-64
2023/12/18 01:45:04;;;;;;;;;;;;;;;3.26;64.94;99811.44;5004092;28;19930;-64
2023/12/18 01:47:53;;;;;;;;;;;;;;;3.24;65.13;99811.63;5004561;28;20398;-64
2023/12/18 01:50:41;;;;;;;;;;;;;;;3.23;65.41;99815.34;5002932;28;20072;-65
2023/12/18 01:53:30;;;;;;;;;;;;;;;3.27;65.17;99810.38;5002975;28;20330;-64
2023/12/18 01:56:19;;;;;;;;;;;;;;;3.24;65.53;99810.81;5005586;28;20280;-64
2023/12/18 01:59:09;;;;;;;;;;;;;;;3.34;65.76;99813.84;5005427;28;19933;-63
2023/12/18 02:01:58;;;;;;;;;;;;;;;3.38;65.60;99812.38;5003813;28;20465;-64
2023/12/18 02:04:47;;;;;;;;;;;;;;;3.42;65.46;99816.28;5006431;28;20304;-64
2023/12/18 02:07:35;;;;;;;;;;;;;;;3.50;65.25;99812.47;5003599;28;19951;-65
2023/12/18 02:10:25;;;;;;;;;;;;;;;3.50;64.65;99802.56;5006363;28;22409;-64
2023/12/18 02:13:13;;;;;;;;;;;;;;;3.49;64.59;99798.22;4999285;28;19929;-63
2023/12/18 02:16:01;;;;;;;;;;;;;;;3.49;65.10;99792.03;5003153;28;19956;-64
2023/12/18 02:18:51;;;;;;;;;;;;;;;3.50;64.75;99797.19;5001174;28;19932;-64
2023/12/18 02:21:39;;;;;;;;;;;;;;;3.40;64.98;99788.78;5003175;28;20315;-64
2023/12/18 02:24:29;;;;;;;;;;;;;;;3.49;65.04;99781.28;5002575;28;19929;-65
2023/12/18 02:27:17;;;;;;;;;;;;;;;3.49;64.75;99774.03;5006147;28;19926;-64
2023/12/18 02:30:05;;;;;;;;;;;;;;;3.39;64.87;99771.84;5004653;28;19932;-64
2023/12/18 02:32:53;;;;;;;;;;;;;;;3.42;64.72;99775.97;5007877;28;20284;-64
2023/12/18 02:35:41;;;;;;;;;;;;;;;3.41;64.71;99774.31;5002476;28;19934;-66
2023/12/18 02:38:29;;;;;;;;;;;;;;;3.33;64.79;99769.22;5002310;28;19929;-64
2023/12/18 02:41:19;;;;;;;;;;;;;;;3.33;64.91;99766.53;5005206;28;19977;-63
2023/12/18 02:44:07;;;;;;;;;;;;;;;3.37;64.82;99763.19;5003748;28;20371;-64
2023/12/18 02:46:55;;;;;;;;;;;;;;;3.31;64.62;99772.13;5001110;28;19933;-64
2023/12/18 02:49:43;;;;;;;;;;;;;;;3.18;65.59;99769.53;4999818;28;20280;-63
2023/12/18 02:52:31;;;;;;;;;;;;;;;3.25;65.26;99770.31;5002506;28;20382;-64
2023/12/18 02:55:19;;;;;;;;;;;;;;;3.28;65.46;99779.78;4998562;28;20562;-66
2023/12/18 02:58:08;;;;;;;;;;;;;;;3.20;65.23;99777.38;4998731;28;19929;-64
2023/12/18 03:00:56;;;;;;;;;;;;;;;3.19;65.35;99779.22;5001736;28;19929;-65
2023/12/18 03:03:45;;;;;;;;;;;;;;;3.20;65.40;99777.38;5001321;28;19927;-64
2023/12/18 03:06:33;;;;;;;;;;;;;;;3.17;65.06;99778.63;5003232;28;19925;-64
2023/12/18 03:09:21;;;;;;;;;;;;;;;3.24;64.85;99767.81;5004257;28;19926;-63
2023/12/18 03:12:09;;;;;;;;;;;;;;;3.23;64.60;99774.25;5004193;28;20326;-64
2023/12/18 03:14:58;;;;;;;;;;;;;;;3.18;65.36;99772.22;4997116;28;20338;-64
2023/12/18 03:17:46;;;;;;;;;;;;;;;3.17;65.33;99764.38;5004281;28;19937;-64
2023/12/18 03:20:35;;;;;;;;;;;;;;;3.18;65.35;99774.06;4997218;28;19930;-62
2023/12/18 03:23:23;;;;;;;;;;;;;;;3.15;65.43;99773.47;5005554;28;19933;-65
2023/12/18 03:26:14;;;;;;;;;;;;;;;3.15;65.43;99770.78;5003712;28;20060;-64
2023/12/18 03:29:02;;;;;;;;;;;;;;;3.20;65.28;99780.06;5002892;28;20721;-63
2023/12/18 03:31:51;;;;;;;;;;;;;;;3.13;65.44;99767.47;5007218;28;20363;-64
2023/12/18 03:34:39;;;;;;;;;;;;;;;3.12;65.69;99765.84;5004991;28;19926;-63
2023/12/18 03:37:27;;;;;;;;;;;;;;;3.04;65.80;99762.63;5004040;28;20012;-64
2023/12/18 03:40:15;;;;;;;;;;;;;;;3.12;65.88;99763.16;5000789;28;20385;-63
2023/12/18 03:43:04;;;;;;;;;;;;;;;3.08;65.36;99761.13;5003765;28;19925;-64
2023/12/18 03:45:52;;;;;;;;;;;;;;;3.12;65.13;99760.47;5003536;28;19929;-64
2023/12/18 03:48:43;;;;;;;;;;;;;;;3.07;65.11;99757.63;4999393;28;19960;-64
2023/12/18 03:51:32;;;;;;;;;;;;;;;3.06;65.12;99753.28;5003177;28;20396;-64
2023/12/18 03:54:21;;;;;;;;;;;;;;;3.04;64.92;99762.63;5004098;28;19932;-63
2023/12/18 03:57:09;;;;;;;;;;;;;;;2.96;65.71;99760.19;5008706;28;19925;-65
2023/12/18 03:59:57;;;;;;;;;;;;;;;2.96;65.67;99760.19;5001162;28;19930;-64
2023/12/18 04:02:45;;;;;;;;;;;;;;;2.97;65.49;99751.91;5006281;28;19932;-65
2023/12/18 04:05:35;;;;;;;;;;;;;;;2.93;65.71;99761.44;4997315;28;19976;-64
2023/12/18 04:08:23;;;;;;;;;;;;;;;2.87;65.85;99757.72;5003765;28;20011;-64
2023/12/18 04:11:14;;;;;;;;;;;;;;;2.86;66.44;99757.97;5001499;28;19991;-65
2023/12/18 04:14:03;;;;;;;;;;;;;;;2.85;65.99;99748.25;5002128;28;19975;-66
2023/12/18 04:16:51;;;;;;;;;;;;;;;2.93;65.82;99755.22;5002758;28;20323;-64
2023/12/18 04:19:39;;;;;;;;;;;;;;;2.87;65.67;99748.88;5007959;28;20291;-64
2023/12/18 04:22:29;;;;;;;;;;;;;;;2.96;65.31;99744.88;5002176;28;19938;-64
2023/12/18 04:25:17;;;;;;;;;;;;;;;2.98;65.06;99742.78;5003649;28;19930;-64
2023/12/18 04:28:05;;;;;;;;;;;;;;;3.01;65.74;99749.63;5008156;28;20056;-64
2023/12/18 04:30:56;;;;;;;;;;;;;;;2.99;65.65;99731.03;5005900;28;19933;-65
2023/12/18 04:33:44;;;;;;;;;;;;;;;3.05;65.44;99732.84;5007589;28;19929;-63
2023/12/18 04:36:37;;;;;;;;;;;;;;;3.03;65.10;99734.91;5003403;28;20316;-64
2023/12/18 04:39:26;;;;;;;;;;;;;;;2.91;65.54;99744.72;5002997;28;19926;-62
2023/12/18 04:42:14;;;;;;;;;;;;;;;3.04;65.63;99747.31;5008750;28;19980;-65
2023/12/18 04:45:03;;;;;;;;;;;;;;;3.03;65.00;99750.19;5005317;28;19933;-64
2023/12/18 04:47:51;;;;;;;;;;;;;;;3.03;64.97;99753.72;5007798;28;19978;-65
2023/12/18 04:50:39;;;;;;;;;;;;;;;2.91;65.49;99758.13;5005766;28;20077;-65
2023/12/18 04:53:28;;;;;;;;;;;;;;;2.79;65.65;99749.94;5004771;28;20556;-65
2023/12/18 04:56:19;;;;;;;;;;;;;;;2.70;65.83;99745.88;5004144;28;19925;-63
2023/12/18 04:59:07;;;;;;;;;;;;;;;2.53;66.35;99736.69;5007502;28;19929;-66
2023/12/18 05:01:56;;;;;;;;;;;;;;;2.68;66.45;99742.59;5007332;28;20569;-64
2023/12/18 05:04:44;;;;;;;;;;;;;;;2.63;66.51;99735.19;5000759;28;19925;-68
2023/12/18 05:07:32;;;;;;;;;;;;;;;2.76;66.08;99738.81;5004119;28;20418;-66
2023/12/18 05:10:19;;;;;;;;;;;;;;;2.87;65.51;99744.31;5001272;28;19933;-65
2023/12/18 05:13:09;;;;;;;;;;;;;;;3.00;65.61;99745.28;5007774;28;20023;-66
2023/12/18 05:15:57;;;;;;;;;;;;;;;3.04;64.77;99744.63;5005542;28;20518;-64
2023/12/18 05:18:45;;;;;;;;;;;;;;;3.13;64.76;99747.88;5007751;28;20307;-64
2023/12/18 05:21:35;;;;;;;;;;;;;;;3.15;64.18;99743.13;5007662;28;20391;-65
2023/12/18 05:24:23;;;;;;;;;;;;;;;3.22;64.07;99735.00;5006424;28;20016;-64
2023/12/18 05:27:11;;;;;;;;;;;;;;;3.30;63.91;99732.88;5001605;28;20023;-65
2023/12/18 05:30:00;;;;;;;;;;;;;;;3.31;64.06;99725.63;5005094;28;20032;-65
2023/12/18 05:32:48;;;;;;;;;;;;;;;3.36;63.32;99728.50;5002151;28;19936;-63
2023/12/18 05:35:36;;;;;;;;;;;;;;;3.39;63.20;99718.09;5002003;28;20024;-64
2023/12/18 05:38:24;;;;;;;;;;;;;;;3.47;62.79;99725.06;5000263;28;20379;-64
2023/12/18 05:41:12;;;;;;;;;;;;;;;3.50;62.89;99724.63;5002799;28;19929;-65
2023/12/18 05:44:00;;;;;;;;;;;;;;;3.52;62.42;99719.88;5007001;28;19925;-64
2023/12/18 05:46:50;;;;;;;;;;;;;;;3.54;62.32;99715.09;5005465;28;20417;-62
2023/12/18 05:49:38;;;;;;;;;;;;;;;3.55;62.89;99721.28;5003935;28;19933;-63
2023/12/18 05:52:26;;;;;;;;;;;;;;;3.59;62.67;99723.31;5010292;28;20319;-64
2023/12/18 05:55:14;;;;;;;;;;;;;;;3.58;62.88;99727.03;5006685;28;19945;-64
2023/12/18 05:58:02;;;;;;;;;;;;;;;3.56;62.45;99731.78;5008371;28;20063;-65
2023/12/18 06:00:50;;;;;;;;;;;;;;;3.55;61.91;99748.97;5006057;28;19925;-64
2023/12/18 06:03:40;;;;;;;;;;;;;;;3.41;62.91;99760.91;5002461;28;19929;-64
2023/12/18 06:06:28;;;;;;;;;;;;;;;3.41;62.87;99748.28;5005944;28;20452;-64
2023/12/18 06:09:18;;;;;;;;;;;;;;;3.44;62.12;99747.00;5005891;28;20518;-63
2023/12/18 06:12:08;;;;;;;;;;;;;;;3.39;62.70;99744.16;4998198;28;20057;-63
2023/12/18 06:14:56;;;;;;;;;;;;;;;3.38;62.78;99747.88;5005100;28;19969;-64
2023/12/18 06:17:44;;;;;;;;;;;;;;;3.40;63.19;99729.66;5004392;28;19936;-64
2023/12/18 06:20:33;;;;;;;;;;;;;;;3.51;62.37;99739.69;5007384;28;19926;-64
2023/12/18 06:23:23;;;;;;;;;;;;;;;3.63;62.14;99737.94;4999337;28;19926;-65
2023/12/18 06:26:11;;;;;;;;;;;;;;;3.77;61.31;99741.31;5002828;28;19926;-64
2023/12/18 06:28:59;;;;;;;;;;;;;;;3.64;61.67;99738.78;5002365;28;20470;-66
2023/12/18 06:31:48;;;;;;;;;;;;;;;3.75;60.87;99737.22;5003086;28;19933;-65
2023/12/18 06:34:36;;;;;;;;;;;;;;;3.80;60.75;99740.88;5000094;28;19930;-65
2023/12/18 06:37:25;;;;;;;;;;;;;;;3.91;60.70;99739.31;5010068;28;19929;-65
2023/12/18 06:40:15;;;;;;;;;;;;;;;3.90;60.66;99740.38;5001384;28;19925;-65
2023/12/18 06:43:03;;;;;;;;;;;;;;;3.93;60.52;99740.72;4998650;28;20063;-65
2023/12/18 06:45:51;;;;;;;;;;;;;;;3.82;60.46;99749.53;5000965;28;19930;-65
2023/12/18 06:48:40;;;;;;;;;;;;;;;3.72;60.51;99745.72;4999753;28;19937;-63
2023/12/18 06:51:28;;;;;;;;;;;;;;;3.49;61.27;99754.41;5004083;28;19930;-63
2023/12/18 06:54:17;;;;;;;;;;;;;;;3.28;61.74;99769.88;5006144;28;19932;-65
2023/12/18 06:57:05;;;;;;;;;;;;;;;3.20;62.32;99766.63;5001562;28;19941;-64
2023/12/18 06:59:54;;;;;;;;;;;;;;;3.33;62.11;99772.72;5002021;28;20298;-65
2023/12/18 07:02:42;;;;;;;;;;;;;;;3.40;61.57;99767.28;5003025;28;20319;-63
2023/12/18 07:05:30;;;;;;;;;;;;;;;3.51;61.54;99763.06;5005553;28;19934;-65
2023/12/18 07:08:18;;;;;;;;;;;;;;;3.58;61.16;99763.84;5003507;28;19933;-62
2023/12/18 07:11:07;;;;;;;;;;;;;;;3.61;61.13;99774.97;5008867;28;20007;-65
2023/12/18 07:13:55;;;;;;;;;;;;;;;3.57;61.55;99773.78;5009601;28;19926;-64
2023/12/18 07:16:43;;;;;;;;;;;;;;;3.56;61.43;99776.66;5007164;28;20008;-65
2023/12/18 07:19:31;;;;;;;;;;;;;;;3.57;60.72;99772.94;4996876;28;19968;-64
2023/12/18 07:22:19;;;;;;;;;;;;;;;3.58;61.00;99775.41;5009483;28;19933;-64
2023/12/18 07:25:09;;;;;;;;;;;;;;;3.60;61.05;99777.88;5006397;28;19933;-64
2023/12/18 07:27:58;;;;;;;;;;;;;;;3.60;60.81;99770.63;5001752;28;19929;-65
2023/12/18 07:30:46;;;;;;;;;;;;;;;3.65;60.75;99770.78;4994812;28;19926;-64
2023/12/18 07:33:36;;;;;;;;;;;;;;;3.60;60.84;99776.00;5009188;28;19965;-64
2023/12/18 07:36:24;;;;;;;;;;;;;;;3.58;61.05;99783.47;5001539;28;19937;-65
2023/12/18 07:39:13;;;;;;;;;;;;;;;3.58;61.26;99780.78;5002577;28;20241;-63
2023/12/18 07:42:02;;;;;;;;;;;;;;;3.59;61.22;99778.94;5004325;28;19929;-64
2023/12/18 07:44:51;;;;;;;;;;;;;;;3.60;61.31;99773.31;5002726;28;19929;-65
2023/12/18 07:47:41;;;;;;;;;;;;;;;3.57;61.25;99768.41;5005041;28;20017;-66
2023/12/18 07:50:29;;;;;;;;;;;;;;;3.51;61.56;99774.63;5001795;28;19987;-65
2023/12/18 07:53:17;;;;;;;;;;;;;;;3.55;61.38;99773.16;4995571;28;19985;-62
2023/12/18 07:56:05;;;;;;;;;;;;;;;3.61;61.20;99763.38;5002275;28;20027;-64
2023/12/18 07:58:53;;;;;;;;;;;;;;;3.62;61.07;99771.25;5001335;28;20010;-63
2023/12/18 08:01:43;;;;;;;;;;;;;;;3.58;61.43;99780.78;5005501;28;19961;-64
2023/12/18 08:04:31;;;;;;;;;;;;;;;3.69;61.12;99779.25;5001060;28;19949;-64
2023/12/18 08:07:20;;;;;;;;;;;;;;;3.52;61.29;99789.75;4999867;28;20363;-64
2023/12/18 08:10:08;;;;;;;;;;;;;;;3.55;61.19;99785.78;5006732;28;20051;-65
2023/12/18 08:12:56;;;;;;;;;;;;;;;3.66;61.50;99785.88;5009723;28;19933;-66
2023/12/18 08:15:44;;;;;;;;;;;;;;;3.77;60.90;99778.13;4999205;28;19981;-63
2023/12/18 08:18:34;;;;;;;;;;;;;;;3.83;60.76;99779.94;5005206;28;19929;-62
2023/12/18 08:21:22;;;;;;;;;;;;;;;3.79;60.72;99773.38;5007313;28;19929;-63
2023/12/18 08:24:10;;;;;;;;;;;;;;;3.82;60.46;99770.22;5005156;28;20582;-65
2023/12/18 08:27:00;;;;;;;;;;;;;;;3.88;60.33;99770.16;5002783;28;19946;-65
2023/12/18 08:29:48;;;;;;;;;;;;;;;3.94;60.25;99763.06;5003680;28;19983;-64
2023/12/18 08:32:36;;;;;;;;;;;;;;;3.96;59.88;99754.78;5002593;28;20299;-65
2023/12/18 08:35:25;;;;;;;;;;;;;;;3.93;59.82;99751.50;5003757;28;20056;-66
2023/12/18 08:38:13;;;;;;;;;;;;;;;4.02;60.09;99738.59;5005004;28;20052;-65
2023/12/18 08:41:02;;;;;;;;;;;;;;;3.99;60.08;99743.56;5009153;28;19934;-64
2023/12/18 08:43:50;;;;;;;;;;;;;;;3.98;59.88;99748.13;5003508;28;20279;-64
2023/12/18 08:46:45;;;;;;;;;;;;;;;4.01;60.10;99750.38;4998885;28;19929;-64
2023/12/18 08:49:33;;;;;;;;;;;;;;;4.01;60.55;99747.69;5004169;28;19929;-65
2023/12/18 08:52:23;;;;;;;;;;;;;;;4.03;60.28;99740.22;5006533;28;19930;-63
2023/12/18 08:55:11;;;;;;;;;;;;;;;4.03;60.33;99740.22;5006850;28;20007;-64
2023/12/18 08:57:59;;;;;;;;;;;;;;;4.04;60.49;99746.41;5004914;28;19975;-64
2023/12/18 09:00:47;;;;;;;;;;;;;;;4.04;60.44;99739.16;5011764;28;19932;-64
2023/12/18 09:03:36;;;;;;;;;;;;;;;4.09;60.49;99733.13;5010207;28;19925;-63
2023/12/18 09:06:24;;;;;;;;;;;;;;;4.07;60.74;99733.34;5001357;28;20388;-64
2023/12/18 09:09:13;;;;;;;;;;;;;;;4.13;60.32;99740.53;5007902;28;19937;-64
2023/12/18 09:12:02;;;;;;;;;;;;;;;4.19;60.36;99741.50;5009740;28;19936;-64
2023/12/18 09:14:50;;;;;;;;;;;;;;;4.25;60.49;99748.66;5010669;28;20427;-63
2023/12/18 09:17:38;;;;;;;;;;;;;;;4.37;59.72;99746.06;5011559;28;19933;-62
2023/12/18 09:20:26;;;;;;;;;;;;;;;4.50;59.67;99751.25;5009545;28;19940;-66
2023/12/18 09:23:15;;;;;;;;;;;;;;;4.61;59.32;99747.78;5010753;28;19925;-64
2023/12/18 09:26:05;;;;;;;;;;;;;;;4.79;58.89;99749.63;5008561;28;20398;-65
2023/12/18 09:28:56;;;;;;;;;;;;;;;4.83;58.39;99731.16;5009274;28;20450;-64
2023/12/18 09:31:44;;;;;;;;;;;;;;;4.88;58.67;99739.34;4994258;28;19946;-64
2023/12/18 09:34:36;;;;;;;;;;;;;;;5.00;57.83;99741.03;4997022;28;20437;-65
2023/12/18 09:37:25;;;;;;;;;;;;;;;5.07;57.77;99734.75;5008435;28;20450;-62
2023/12/18 09:40:13;;;;;;;;;;;;;;;5.17;57.13;99738.50;5000668;28;19926;-65
2023/12/18 09:43:03;;;;;;;;;;;;;;;5.12;56.76;99730.31;5008085;28;20012;-63
2023/12/18 09:45:51;;;;;;;;;;;;;;;5.14;57.47;99732.75;5007757;28;19936;-65
2023/12/18 09:48:39;;;;;;;;;;;;;;;5.24;57.33;99724.94;5003723;28;20471;-67
2023/12/18 09:51:28;;;;;;;;;;;;;;;5.29;57.42;99727.75;5007639;28;19926;-64
2023/12/18 09:54:16;;;;;;;;;;;;;;;5.34;57.52;99727.06;5006118;28;19925;-65
2023/12/18 09:57:06;;;;;;;;;;;;;;;5.40;56.99;99732.31;4999490;28;19930;-64
2023/12/18 09:59:55;;;;;;;;;;;;;;;5.40;57.30;99728.81;5007131;28;20407;-63
2023/12/18 10:02:44;;;;;;;;;;;;;;;5.46;56.33;99730.56;5010968;28;20295;-64
2023/12/18 10:05:32;;;;;;;;;;;;;;;5.44;57.18;99721.91;5012353;28;20310;-65
2023/12/18 10:08:21;;;;;;;;;;;;;;;5.52;56.68;99726.94;5008810;28;19932;-63
2023/12/18 10:11:11;;;;;;;;;;;;;;;5.50;56.96;99715.59;5011209;28;20276;-63
2023/12/18 10:13:59;;;;;;;;;;;;;;;5.51;57.17;99704.56;5008771;28;20016;-64
2023/12/18 10:16:48;;;;;;;;;;;;;;;5.59;56.80;99711.47;5012828;28;19926;-64
2023/12/18 10:19:37;;;;;;;;;;;;;;;5.67;56.72;99708.44;5013118;28;19974;-64
2023/12/18 10:22:27;;;;;;;;;;;;;;;5.68;56.66;99698.47;5008319;28;19934;-64
2023/12/18 10:25:16;;;;;;;;;;;;;;;5.72;56.77;99700.44;5013905;28;20001;-64
2023/12/18 10:28:05;;;;;;;;;;;;;;;5.74;56.69;99703.72;5008466;28;19925;-64
2023/12/18 10:30:54;;;;;;;;;;;;;;;5.77;56.57;99697.88;5006274;28;19948;-66
2023/12/18 10:33:43;;;;;;;;;;;;;;;5.76;56.97;99695.41;5009750;28;19934;-64
2023/12/18 10:36:32;;;;;;;;;;;;;;;5.82;56.64;99699.84;5009269;28;19937;-65
2023/12/18 10:39:20;;;;;;;;;;;;;;;5.85;56.79;99690.47;5009246;28;20056;-64
2023/12/18 10:42:10;;;;;;;;;;;;;;;5.88;56.85;99685.41;5007836;28;19932;-65
2023/12/18 10:45:01;;;;;;;;;;;;;;;5.88;56.45;99692.69;5009447;28;19943;-64
2023/12/18 10:47:49;;;;;;;;;;;;;;;5.98;56.53;99687.56;5008417;28;19925;-64
2023/12/18 10:50:38;;;;;;;;;;;;;;;6.02;56.83;99667.97;5000515;28;20000;-64
2023/12/18 10:53:26;;;;;;;;;;;;;;;6.12;56.23;99672.72;5001747;28;19929;-64
2023/12/18 10:56:16;;;;;;;;;;;;;;;6.23;56.15;99676.44;5009509;28;20449;-64
2023/12/18 10:59:05;;;;;;;;;;;;;;;6.33;55.45;99670.44;5006879;28;19973;-64
2023/12/18 11:01:54;;;;;;;;;;;;;;;6.41;55.77;99668.19;5007549;28;20000;-65
2023/12/18 11:04:42;;;;;;;;;;;;;;;6.56;55.05;99673.88;5001390;28;19937;-63
2023/12/18 11:07:32;;;;;;;;;;;;;;;6.58;55.29;99665.50;5003255;28;20348;-63
2023/12/18 11:10:21;;;;;;;;;;;;;;;6.63;55.27;99660.22;5000849;28;20459;-63
2023/12/18 11:13:11;;;;;;;;;;;;;;;6.75;55.14;99660.13;4999412;28;20392;-65
2023/12/18 11:16:03;;;;;;;;;;;;;;;6.79;54.30;99656.72;5002514;28;19976;-64
2023/12/18 11:18:53;;;;;;;;;;;;;;;6.85;54.32;99654.91;4998241;28;20392;-62
2023/12/18 11:21:41;;;;;;;;;;;;;;;6.91;53.92;99659.34;5003715;28;19937;-63
2023/12/18 11:24:36;;;;;;;;;;;;;;;7.00;54.20;99648.97;5004789;28;20007;-63
2023/12/18 11:27:24;;;;;;;;;;;;;;;6.93;53.01;99646.41;5003909;28;19938;-64
2023/12/18 11:30:24;;;;;;;;;;;;;;;7.01;53.72;99645.19;5005383;28;19932;-63
2023/12/18 11:33:14;;;;;;;;;;;;;;;6.99;53.75;99645.44;5006689;28;20290;-64
2023/12/18 11:36:03;;;;;;;;;;;;;;;7.08;54.12;99626.91;5006679;28;19926;-63
2023/12/18 11:38:54;;;;;;;;;;;;;;;7.09;54.33;99617.75;5009252;28;19977;-64
2023/12/18 11:41:44;;;;;;;;;;;;;;;7.16;53.40;99613.00;5011760;28;20391;-65
2023/12/18 11:44:32;;;;;;;;;;;;;;;7.19;53.74;99615.22;5007266;28;19925;-63
2023/12/18 11:47:21;;;;;;;;;;;;;;;7.25;53.97;99608.81;5013067;28;19933;-63
2023/12/18 11:50:09;;;;;;;;;;;;;;;7.23;53.38;99596.59;5008949;28;20276;-63
2023/12/18 11:52:57;;;;;;;;;;;;;;;7.25;53.47;99595.31;5013010;28;20339;-62
2023/12/18 11:55:46;;;;;;;;;;;;;;;7.28;54.19;99583.97;5007898;28;19933;-64
2023/12/18 11:58:36;;;;;;;;;;;;;;;7.39;53.70;99589.53;5002420;28;19931;-63
2023/12/18 12:01:24;;;;;;;;;;;;;;;7.35;53.77;99573.81;5010359;28;19925;-62
2023/12/18 12:04:12;;;;;;;;;;;;;;;7.38;54.13;99567.09;5006966;28;19933;-63
2023/12/18 12:07:00;;;;;;;;;;;;;;;7.32;53.82;99568.91;5008466;28;19932;-63
2023/12/18 12:09:58;;;;;;;;;;;;;;;7.34;53.78;99561.34;5006370;28;19968;-63
2023/12/18 12:12:46;;;;;;;;;;;;;;;7.39;53.79;99559.78;5005439;28;20457;-63
2023/12/18 12:15:35;;;;;;;;;;;;;;;7.44;53.59;99560.66;5012020;28;19937;-63
2023/12/18 12:18:26;;;;;;;;;;;;;;;7.52;53.02;99556.72;5008189;28;19978;-63
2023/12/18 12:21:15;;;;;;;;;;;;;;;7.63;53.19;99560.38;5007752;28;20299;-63
2023/12/18 12:24:03;;;;;;;;;;;;;;;7.77;52.52;99558.91;5009283;28;19929;-63
2023/12/18 12:26:51;;;;;;;;;;;;;;;7.85;52.53;99559.28;5011113;28;19937;-62
2023/12/18 12:29:39;;;;;;;;;;;;;;;7.93;52.64;99552.59;5009544;28;19925;-64
2023/12/18 12:32:31;;;;;;;;;;;;;;;7.96;52.43;99551.28;5005455;28;19926;-63
2023/12/18 12:35:19;;;;;;;;;;;;;;;8.04;52.09;99542.69;5010585;28;19925;-63
2023/12/18 12:38:07;;;;;;;;;;;;;;;8.02;51.55;99544.84;5008912;28;19930;-63
2023/12/18 12:40:55;;;;;;;;;;;;;;;8.07;51.88;99547.63;5006857;28;19948;-63
2023/12/18 12:43:44;;;;;;;;;;;;;;;8.15;51.34;99544.47;5002459;28;19929;-62
2023/12/18 12:46:32;;;;;;;;;;;;;;;8.18;51.36;99554.78;5010539;28;19930;-63
2023/12/18 12:49:24;;;;;;;;;;;;;;;8.17;51.90;99545.03;4997712;28;20288;-63
2023/12/18 12:52:12;;;;;;;;;;;;;;;8.18;51.28;99540.41;5009651;28;20406;-63
2023/12/18 12:55:02;;;;;;;;;;;;;;;8.19;51.73;99545.56;5010298;28;20295;-62
2023/12/18 12:57:51;;;;;;;;;;;;;;;8.18;51.83;99538.53;5007345;28;19929;-63
2023/12/18 13:00:39;;;;;;;;;;;;;;;8.18;51.55;99538.53;5006722;28;20051;-63
2023/12/18 13:03:27;;;;;;;;;;;;;;;8.23;51.14;99535.88;5010772;28;19934;-63
2023/12/18 13:06:16;;;;;;;;;;;;;;;8.24;51.13;99526.66;5008884;28;19935;-62
2023/12/18 13:09:05;;;;;;;;;;;;;;;8.21;51.41;99527.19;5003308;28;19934;-63
2023/12/18 13:11:53;;;;;;;;;;;;;;;8.23;51.51;99525.03;5004809;28;19944;-63
2023/12/18 13:14:41;;;;;;;;;;;;;;;8.22;51.93;99523.41;5009770;28;19933;-64
2023/12/18 13:17:31;;;;;;;;;;;;;;;8.20;51.53;99514.72;5010335;28;19984;-64
2023/12/18 13:20:20;;;;;;;;;;;;;;;8.14;51.46;99516.56;5011011;28;19926;-63
2023/12/18 13:23:15;;;;;;;;;;;;;;;8.16;51.66;99515.50;5008858;28;19929;-61
2023/12/18 13:26:05;;;;;;;;;;;;;;;8.16;52.08;99502.78;5005982;28;19948;-62
2023/12/18 13:28:53;;;;;;;;;;;;;;;8.16;52.40;99507.38;5005176;28;19933;-63
2023/12/18 13:31:42;;;;;;;;;;;;;;;8.16;52.09;99500.06;4998236;28;20421;-61
2023/12/18 13:34:31;;;;;;;;;;;;;;;8.24;51.95;99499.59;5006720;28;19969;-61
2023/12/18 13:37:19;;;;;;;;;;;;;;;8.21;52.22;99499.31;5007289;28;20403;-62
2023/12/18 13:40:09;;;;;;;;;;;;;;;8.30;51.84;99498.56;5000550;28;20302;-62
2023/12/18 13:42:57;;;;;;;;;;;;;;;8.36;51.31;99494.88;5004835;28;19925;-61
2023/12/18 13:45:46;;;;;;;;;;;;;;;8.45;51.16;99488.97;5005636;28;20383;-61
2023/12/18 13:48:37;;;;;;;;;;;;;;;8.40;51.87;99482.44;5000800;28;19934;-62
2023/12/18 13:51:26;;;;;;;;;;;;;;;8.45;52.43;99478.13;5009336;28;20499;-61
2023/12/18 13:54:14;;;;;;;;;;;;;;;8.45;51.73;99484.38;4997979;28;19932;-61
2023/12/18 13:57:03;;;;;;;;;;;;;;;8.46;51.89;99483.28;5005236;28;19940;-61
2023/12/18 13:59:51;;;;;;;;;;;;;;;8.51;51.44;99482.53;5009301;28;20053;-62
2023/12/18 14:02:39;;;;;;;;;;;;;;;8.49;51.42;99485.50;4999474;28;19930;-62
2023/12/18 14:05:27;;;;;;;;;;;;;;;8.50;51.49;99479.00;5009545;28;19929;-62
2023/12/18 14:08:15;;;;;;;;;;;;;;;8.48;52.16;99480.34;5002931;28;20467;-64
2023/12/18 14:11:04;;;;;;;;;;;;;;;8.47;51.77;99476.81;5004207;28;19927;-62
2023/12/18 14:13:53;;;;;;;;;;;;;;;8.47;52.77;99478.69;5009654;28;19932;-64
2023/12/18 14:16:42;;;;;;;;;;;;;;;8.40;52.59;99477.00;5008626;28;19925;-61
2023/12/18 14:19:31;;;;;;;;;;;;;;;8.37;51.71;99472.13;5009270;28;20406;-61
2023/12/18 14:22:19;;;;;;;;;;;;;;;8.35;51.81;99471.53;5008525;28;19925;-62
2023/12/18 14:25:09;;;;;;;;;;;;;;;8.29;52.12;99463.63;5006243;28;19932;-61
2023/12/18 14:27:57;;;;;;;;;;;;;;;8.30;52.40;99466.06;5007692;28;19925;-61
2023/12/18 14:30:47;;;;;;;;;;;;;;;8.32;52.89;99463.13;5006231;28;19933;-61
2023/12/18 14:33:35;;;;;;;;;;;;;;;8.28;53.23;99470.13;5006917;28;19933;-62
2023/12/18 14:36:23;;;;;;;;;;;;;;;8.22;52.63;99465.75;5001917;28;19925;-62
2023/12/18 14:39:11;;;;;;;;;;;;;;;8.22;53.46;99463.84;5004295;28;19945;-61
2023/12/18 14:42:02;;;;;;;;;;;;;;;8.17;53.35;99469.22;5004588;28;19934;-62
2023/12/18 14:44:50;;;;;;;;;;;;;;;8.17;53.31;99466.50;5006624;28;19929;-62
2023/12/18 14:47:39;;;;;;;;;;;;;;;8.14;53.25;99464.31;5007678;28;20000;-62
2023/12/18 14:50:28;;;;;;;;;;;;;;;8.09;53.85;99456.13;4998841;28;19929;-62